
Distance (Route):
Temperature : -3.3°C
Humidity : 53.0%
Pressure : 588.5hPa| Receiver | Frames | First received | Last received |
|---|---|---|---|
| 9A1FER-10 | 66 | 2026-08-31 11:58:39 | 2026-08-31 12:57:22 |
| LZ4TU-5 | 51 | 2026-08-31 11:50:03 | 2026-08-31 12:53:13 |
| OM5KV | 39 | 2026-08-31 11:39:36 | 2026-08-31 11:43:13 |
| PETON7-10 | 35 | 2026-08-31 12:47:06 | 2026-08-31 12:56:42 |
| GYPAP8-17 | 19 | 2026-08-31 11:39:57 | 2026-08-31 13:06:24 |
| 9A1FER-3 | 14 | 2026-08-31 12:36:16 | 2026-08-31 12:43:38 |
| Receiver | Date | Latitude | Longitude | Direction | Speed | Altitude | Climb | Temperature | Humidity | Pressure | Voltage | Killtimer | Uptime | BKT | XDATA |
|---|---|---|---|---|---|---|---|---|---|---|---|---|---|---|---|
| GYPAP8-17 | 2026-08-31 13:06:24 | 46.30231 | 20.84549 | 82° | 24km/h | 4610m | -16.9m/s | -3.3°C | 53.0% | 588.5hPa | 2.7V | 08:14:00 | 00:00:00 | 00:00:00 | |
| GYPAP8-17 | 2026-08-31 13:06:03 | 46.30202 | 20.84351 | 82° | 33km/h | 4959m | -17.1m/s | -4.7°C | 21.8% | 562.9hPa | 2.7V | 00:00:00 | 00:00:00 | 00:00:00 | |
| GYPAP8-17 | 2026-08-31 13:05:07 | 46.30107 | 20.83716 | 77° | 31km/h | 5946m | -17.7m/s | -8.8°C | 29.7% | 496.3hPa | 2.7V | 00:00:00 | 00:00:00 | 00:00:00 | |
| GYPAP8-17 | 2026-08-31 13:04:13 | 46.29963 | 20.82887 | 82° | 53km/h | 6952m | -18.7m/s | -16.0°C | 35.0% | 435.2hPa | 2.7V | 00:00:00 | 00:00:00 | 00:00:00 | |
| GYPAP8-17 | 2026-08-31 13:03:19 | 46.29771 | 20.81771 | 84° | 58km/h | 7922m | -18.2m/s | -22.9°C | 11.4% | 382.0hPa | 2.7V | 00:00:00 | 00:00:00 | 00:00:00 | |
| GYPAP8-17 | 2026-08-31 13:01:19 | 46.29993 | 20.78482 | 99° | 91km/h | 10275m | -21.0m/s | -41.1°C | 29.3% | 274.2hPa | 2.7V | 00:00:00 | 00:00:00 | 00:00:00 | |
| 9A1FER-10 | 2026-08-31 12:57:22 | 46.30969 | 20.71301 | 84° | 37km/h | 15882m | -31.3m/s | -58.4°C | 5.6% | 113.7hPa | 2.7V | 00:00:00 | 02:07:51 | 00:00:00 | |
| 9A1FER-10 | 2026-08-31 12:56:43 | 46.30870 | 20.70769 | 82° | 33km/h | 17040m | -29.3m/s | -58.5°C | 5.5% | 94.6hPa | 2.6V | 00:00:00 | 02:07:12 | 00:00:00 | |
| PETON7-10 | 2026-08-31 12:56:42 | 46.30869 | 20.70755 | 84° | 33km/h | 17070m | -30.0m/s | -58.7°C | 5.7% | 94.2hPa | 2.6V | 00:00:00 | 00:00:00 | 00:00:00 | |
| 9A1FER-10 | 2026-08-31 12:56:28 | 46.30868 | 20.70589 | 104° | 29km/h | 17532m | -36.6m/s | -56.1°C | 4.4% | 87.7hPa | 2.6V | 00:00:00 | 02:06:57 | 00:00:00 | |
| PETON7-10 | 2026-08-31 12:56:27 | 46.30871 | 20.70579 | 119° | 13km/h | 17568m | -36.1m/s | -56.1°C | 4.3% | 87.2hPa | 2.6V | 00:00:00 | 02:06:56 | 00:00:00 | |
| PETON7-10 | 2026-08-31 12:56:12 | 46.30869 | 20.70526 | 5° | 22km/h | 18052m | -33.6m/s | -58.2°C | 5.4% | 80.7hPa | 2.6V | 08:25:00 | 00:00:00 | 00:00:00 | |
| 9A1FER-10 | 2026-08-31 12:56:11 | 46.30866 | 20.70526 | 359° | 20km/h | 18086m | -32.5m/s | -58.1°C | 5.4% | 80.1hPa | 2.7V | 08:25:00 | 02:06:40 | 00:00:00 | |
| PETON7-10 | 2026-08-31 12:55:56 | 46.30792 | 20.70482 | 39° | 22km/h | 18603m | -38.5m/s | -57.0°C | 5.0% | 74.1hPa | 2.6V | 00:00:00 | 00:00:00 | 00:00:00 | |
| 9A1FER-10 | 2026-08-31 12:55:55 | 46.30787 | 20.70477 | 34° | 20km/h | 18641m | -37.9m/s | -57.0°C | 4.9% | 73.7hPa | 2.6V | 00:00:00 | 02:06:24 | 00:00:00 | |
| PETON7-10 | 2026-08-31 12:55:25 | 46.30679 | 20.70368 | 60° | 11km/h | 19692m | -32.7m/s | -56.1°C | 5.0% | 62.2hPa | 2.6V | 00:00:00 | 00:00:00 | 00:00:00 | |
| 9A1FER-10 | 2026-08-31 12:55:20 | 46.30672 | 20.70345 | 70° | 7km/h | 19872m | -36.0m/s | -55.8°C | 5.0% | 60.5hPa | 2.6V | 00:00:00 | 02:05:49 | 00:00:00 | |
| PETON7-10 | 2026-08-31 12:55:10 | 46.30663 | 20.70320 | 330° | 7km/h | 20242m | -35.0m/s | -54.4°C | 4.5% | 57.1hPa | 2.7V | 00:00:00 | 00:00:00 | 00:00:00 | |
| 9A1FER-10 | 2026-08-31 12:55:05 | 46.30658 | 20.70324 | 313° | 15km/h | 20438m | -41.7m/s | -52.9°C | 3.9% | 55.5hPa | 2.7V | 00:00:00 | 02:05:34 | 00:00:00 | |
| PETON7-10 | 2026-08-31 12:54:55 | 46.30643 | 20.70346 | 309° | 15km/h | 20848m | -41.5m/s | -53.8°C | 4.2% | 52.1hPa | 2.7V | 00:00:00 | 02:05:24 | 00:00:00 | |
| 9A1FER-10 | 2026-08-31 12:54:48 | 46.30624 | 20.70378 | 334° | 11km/h | 21120m | -41.2m/s | -53.5°C | 4.1% | 49.9hPa | 2.7V | 00:00:00 | 02:05:17 | 00:00:00 | |
| PETON7-10 | 2026-08-31 12:54:40 | 46.30597 | 20.70371 | 27° | 5km/h | 21450m | -41.0m/s | -53.4°C | 4.1% | 47.4hPa | 2.7V | 00:00:00 | 00:00:00 | 00:00:00 | |
| PETON7-10 | 2026-08-31 12:54:25 | 46.30582 | 20.70360 | 284° | 15km/h | 21956m | -32.6m/s | -52.9°C | 4.0% | 43.7hPa | 2.6V | 00:00:00 | 00:00:00 | 00:00:00 | |
| PETON7-10 | 2026-08-31 12:54:10 | 46.30552 | 20.70421 | 11° | 13km/h | 22489m | -39.6m/s | -53.2°C | 4.0% | 40.3hPa | 2.6V | 00:00:00 | 02:04:39 | 00:00:00 | |
| PETON7-10 | 2026-08-31 12:53:55 | 46.30509 | 20.70410 | 319° | 13km/h | 23076m | -43.4m/s | -53.7°C | 4.4% | 36.8hPa | 2.6V | 08:27:00 | 00:00:00 | 00:00:00 | |
| PETON7-10 | 2026-08-31 12:53:40 | 46.30476 | 20.70392 | 72° | 9km/h | 23761m | -41.4m/s | -52.6°C | 4.2% | 33.0hPa | 2.7V | 00:00:00 | 00:00:00 | 00:00:00 | |
| PETON7-10 | 2026-08-31 12:53:25 | 46.30447 | 20.70383 | 23° | 11km/h | 24365m | -48.5m/s | -51.6°C | 4.0% | 30.2hPa | 2.7V | 00:00:00 | 02:03:54 | 00:00:00 | |
| LZ4TU-5 | 2026-08-31 12:53:13 | 46.30420 | 20.70375 | 21° | 18km/h | 24913m | -43.9m/s | -51.3°C | 1.1% | 27.7hPa | 2.7V | 00:00:00 | 00:00:00 | 00:00:00 | |
| PETON7-10 | 2026-08-31 12:53:10 | 46.30412 | 20.70364 | 77° | 7km/h | 25057m | -51.1m/s | -50.6°C | 4.0% | 27.1hPa | 2.7V | 00:00:00 | 00:00:00 | 00:00:00 | |
| 9A1FER-10 | 2026-08-31 12:53:08 | 46.30410 | 20.70354 | 76° | 7km/h | 25156m | -49.1m/s | -50.5°C | 4.0% | 26.7hPa | 2.6V | 00:00:00 | 02:03:37 | 00:00:00 | |
| PETON7-10 | 2026-08-31 12:52:55 | 46.30414 | 20.70339 | 143° | 11km/h | 25777m | -48.2m/s | -48.3°C | 3.4% | 24.2hPa | 2.7V | 00:00:00 | 00:00:00 | 00:00:00 | |
| 9A1FER-10 | 2026-08-31 12:52:48 | 46.30415 | 20.70340 | 319° | 15km/h | 26157m | -53.1m/s | -47.4°C | 3.1% | 22.9hPa | 2.7V | 00:00:00 | 02:03:17 | 00:00:00 | |
| PETON7-10 | 2026-08-31 12:52:40 | 46.30390 | 20.70332 | 53° | 15km/h | 26581m | -48.5m/s | -48.1°C | 3.5% | 21.4hPa | 2.7V | 00:00:00 | 02:03:09 | 00:00:00 | |
| 9A1FER-10 | 2026-08-31 12:52:33 | 46.30386 | 20.70293 | 112° | 15km/h | 26910m | -58.4m/s | -47.8°C | 3.5% | 20.5hPa | 2.7V | 00:00:00 | 02:03:02 | 00:00:00 | |
| PETON7-10 | 2026-08-31 12:52:25 | 46.30388 | 20.70257 | 81° | 15km/h | 27377m | -55.0m/s | -47.3°C | 3.6% | 19.0hPa | 2.7V | 00:00:00 | 00:00:00 | 00:00:00 | |
| PETON7-10 | 2026-08-31 12:52:10 | 46.30383 | 20.70186 | 83° | 9km/h | 28257m | -70.8m/s | -44.1°C | 3.0% | 16.8hPa | 2.7V | 00:00:00 | 00:00:00 | 00:00:00 | |
| PETON7-10 | 2026-08-31 12:51:55 | 46.30358 | 20.70154 | 32° | 22km/h | 29282m | -64.0m/s | -41.8°C | 2.6% | 14.4hPa | 2.7V | 00:00:00 | 02:02:24 | 00:00:00 | |
| PETON7-10 | 2026-08-31 12:51:40 | 46.30281 | 20.70108 | 55° | 13km/h | 30190m | -58.5m/s | -40.7°C | 2.5% | 12.5hPa | 2.7V | 00:00:00 | 00:00:00 | 08:30:00 | |
| 9A1FER-10 | 2026-08-31 12:51:38 | 46.30274 | 20.70093 | 58° | 13km/h | 30304m | -55.4m/s | -40.8°C | 2.5% | 12.3hPa | 2.6V | 00:00:00 | 02:02:07 | 08:30:00 | |
| GYPAP8-17 | 2026-08-31 12:51:32 | 46.30264 | 20.70067 | 54° | 9km/h | 30635m | -73.2m/s | -40.0°C | 0.6% | 11.9hPa | 2.7V | 00:00:00 | 00:00:00 | 00:00:00 | |
| PETON7-10 | 2026-08-31 12:51:24 | 46.30245 | 20.70060 | 37° | 18km/h | 31221m | -71.0m/s | -39.3°C | 2.2% | 10.8hPa | 2.7V | 00:00:00 | 00:00:00 | 00:00:00 | |
| 9A1FER-10 | 2026-08-31 12:51:20 | 46.30235 | 20.70044 | 58° | 9km/h | 31491m | -62.6m/s | -40.2°C | 2.5% | 10.4hPa | 2.7V | 00:00:00 | 02:01:49 | 00:00:00 | |
| PETON7-10 | 2026-08-31 12:51:09 | 46.30213 | 20.69972 | 75° | 27km/h | 32135m | -63.0m/s | -39.0°C | 2.2% | 9.4hPa | 2.7V | 00:00:00 | 02:01:38 | 00:00:00 | |
| PETON7-10 | 2026-08-31 12:50:39 | 46.30188 | 20.69769 | 73° | 18km/h | 33129m | 8.4m/s | -38.5°C | 2.2% | 8.0hPa | 2.7V | 00:00:00 | 00:00:00 | 00:00:00 | |
| PETON7-10 | 2026-08-31 12:50:09 | 46.30110 | 20.69634 | 35° | 11km/h | 32913m | 6.3m/s | -38.6°C | 2.2% | 8.3hPa | 2.7V | 00:00:00 | 00:00:00 | 00:00:00 | |
| PETON7-10 | 2026-08-31 12:49:54 | 46.30088 | 20.69617 | 5° | 9km/h | 32807m | 6.3m/s | 0°C | 0% | 0hPa | 2.7V | 00:00:00 | 00:00:00 | 00:00:00 | |
| PETON7-10 | 2026-08-31 12:49:39 | 46.30091 | 20.69628 | 102° | 13km/h | 32706m | 7.7m/s | 0°C | 0% | 0hPa | 2.7V | 00:00:00 | 02:00:08 | 00:00:00 | |
| PETON7-10 | 2026-08-31 12:49:24 | 46.30093 | 20.69584 | 101° | 22km/h | 32600m | 7.5m/s | 0°C | 0% | 0hPa | 2.7V | 00:00:00 | 00:00:00 | 08:30:00 | |
| PETON7-10 | 2026-08-31 12:49:08 | 46.30107 | 20.69463 | 123° | 27km/h | 32488m | 7.6m/s | 0°C | 0% | 0hPa | 2.7V | 00:00:00 | 00:00:00 | 00:00:00 | |
| PETON7-10 | 2026-08-31 12:48:53 | 46.30117 | 20.69332 | 121° | 26km/h | 32385m | 7.1m/s | 0°C | 0% | 0hPa | 2.7V | 00:00:00 | 01:59:22 | 00:00:00 | |
| GYPAP8-17 | 2026-08-31 12:48:47 | 46.30108 | 20.69295 | 66° | 29km/h | 32343m | 7.4m/s | -38.9°C | 0.5% | 9.0hPa | 2.7V | 00:00:00 | 00:00:00 | 00:00:00 | |
| PETON7-10 | 2026-08-31 12:48:38 | 46.30079 | 20.69210 | 77° | 26km/h | 32281m | 5.3m/s | 0°C | 0% | 0hPa | 2.7V | 00:00:00 | 00:00:00 | 00:00:00 | |
| PETON7-10 | 2026-08-31 12:48:23 | 46.30033 | 20.69103 | 94° | 16km/h | 32178m | 5.6m/s | 0°C | 0% | 0hPa | 2.7V | 00:00:00 | 00:00:00 | 00:00:00 | |
| LZ4TU-5 | 2026-08-31 12:47:52 | 46.29983 | 20.68977 | 66° | 26km/h | 31974m | 7.4m/s | -40.8°C | 0.6% | 9.6hPa | 2.7V | 00:00:00 | 00:00:00 | 00:00:00 | |
| PETON7-10 | 2026-08-31 12:47:51 | 46.29980 | 20.68962 | 87° | 16km/h | 31961m | 5.9m/s | 0°C | 0% | 0hPa | 2.7V | 00:00:00 | 00:00:00 | 00:00:00 | |
| LZ4TU-5 | 2026-08-31 12:47:48 | 46.29980 | 20.68953 | 110° | 5km/h | 31946m | 7.6m/s | -40.6°C | 0.6% | 9.6hPa | 2.7V | 00:00:00 | 00:00:00 | 00:00:00 | |
| PETON7-10 | 2026-08-31 12:47:36 | 46.29968 | 20.68879 | 95° | 26km/h | 31862m | 7.6m/s | 0°C | 0% | 0hPa | 2.7V | 00:00:00 | 00:00:00 | 00:00:00 | |
| PETON7-10 | 2026-08-31 12:47:21 | 46.29938 | 20.68774 | 56° | 24km/h | 31761m | 7.6m/s | 0°C | 0% | 0hPa | 2.7V | 00:00:00 | 01:57:50 | 00:00:00 | |
| GYPAP8-17 | 2026-08-31 12:47:20 | 46.29938 | 20.68774 | 56° | 15km/h | 31761m | 7.7m/s | -40.6°C | 0.6% | 9.9hPa | 2.7V | 00:00:00 | 00:00:00 | 00:00:00 | |
| PETON7-10 | 2026-08-31 12:47:06 | 46.29885 | 20.68681 | 42° | 22km/h | 31657m | 6.8m/s | 0°C | 0% | 0hPa | 2.7V | 00:00:00 | 00:00:00 | 00:00:00 | |
| GYPAP8-17 | 2026-08-31 12:46:14 | 46.29718 | 20.68610 | 148° | 11km/h | 31305m | 8.1m/s | -40.7°C | 0.6% | 10.5hPa | 2.7V | 00:00:00 | 00:00:00 | 00:00:00 | |
| LZ4TU-5 | 2026-08-31 12:45:53 | 46.29655 | 20.68600 | 16° | 22km/h | 31156m | 6.3m/s | -41.0°C | 0.6% | 10.8hPa | 2.7V | 00:00:00 | 00:00:00 | 00:00:00 | |
| GYPAP8-17 | 2026-08-31 12:45:31 | 46.29629 | 20.68597 | 130° | 13km/h | 31004m | 7.3m/s | -41.2°C | 0.6% | 11.0hPa | 2.7V | 00:00:00 | 00:00:00 | 00:00:00 | |
| GYPAP8-17 | 2026-08-31 12:44:04 | 46.29488 | 20.68005 | 79° | 24km/h | 30404m | 7.2m/s | -42.0°C | 0.6% | 12.0hPa | 2.7V | 00:00:00 | 00:00:00 | 00:00:00 | |
| LZ4TU-5 | 2026-08-31 12:43:49 | 46.29401 | 20.67889 | 57° | 26km/h | 30307m | 6.3m/s | -41.9°C | 0.6% | 12.2hPa | 2.7V | 00:00:00 | 00:00:00 | 00:00:00 | |
| 9A1FER-3 | 2026-08-31 12:43:38 | 46.29295 | 20.67826 | 34° | 44km/h | 30229m | 5.9m/s | -42.1°C | 0% | 12.3hPa | 2.7V | 00:00:00 | 01:54:07 | 00:00:00 | |
| 9A1FER-3 | 2026-08-31 12:43:22 | 46.29145 | 20.67760 | 22° | 38km/h | 30124m | 7.4m/s | 0°C | 0% | 0hPa | 2.7V | 00:00:00 | 01:53:51 | 00:00:00 | |
| 9A1FER-3 | 2026-08-31 12:43:07 | 46.29002 | 20.67739 | 3° | 29km/h | 30026m | 7.8m/s | 0°C | 0% | 0hPa | 2.7V | 00:00:00 | 01:53:36 | 00:00:00 | |
| 9A1FER-3 | 2026-08-31 12:42:52 | 46.28892 | 20.67751 | 356° | 29km/h | 29928m | 7.5m/s | 0°C | 0% | 0hPa | 2.7V | 00:00:00 | 01:53:21 | 00:00:00 | |
| LZ4TU-5 | 2026-08-31 12:41:33 | 46.28731 | 20.67657 | 58° | 22km/h | 29411m | 7.0m/s | -43.6°C | 0.7% | 13.9hPa | 2.7V | 00:00:00 | 00:00:00 | 00:00:00 | |
| LZ4TU-5 | 2026-08-31 12:41:29 | 46.28714 | 20.67628 | 57° | 26km/h | 29385m | 7.7m/s | -43.7°C | 0.7% | 14.0hPa | 2.7V | 00:00:00 | 00:00:00 | 00:00:00 | |
| 9A1FER-10 | 2026-08-31 12:40:51 | 46.28610 | 20.67493 | 57° | 4km/h | 29120m | 6.9m/s | -43.1°C | 2.7% | 14.5hPa | 2.7V | 00:00:00 | 01:51:20 | 00:00:00 | |
| GYPAP8-17 | 2026-08-31 12:40:42 | 46.28602 | 20.67488 | 330° | 15km/h | 29058m | 6.3m/s | -43.1°C | 0.7% | 14.7hPa | 2.7V | 00:00:00 | 00:00:00 | 00:00:00 | |
| 9A1FER-10 | 2026-08-31 12:40:36 | 46.28592 | 20.67499 | 21° | 11km/h | 29020m | 7.6m/s | -43.6°C | 2.7% | 14.7hPa | 2.7V | 00:00:00 | 01:51:05 | 00:00:00 | |
| 9A1FER-10 | 2026-08-31 12:40:21 | 46.28574 | 20.67513 | 107° | 9km/h | 28915m | 7.1m/s | -43.5°C | 2.6% | 14.9hPa | 2.6V | 00:00:00 | 01:50:50 | 00:00:00 | |
| 9A1FER-10 | 2026-08-31 12:40:06 | 46.28595 | 20.67489 | 142° | 11km/h | 28814m | 7.2m/s | -44.3°C | 2.8% | 15.2hPa | 2.6V | 00:00:00 | 01:50:35 | 00:00:00 | |
| LZ4TU-5 | 2026-08-31 12:39:20 | 46.28595 | 20.67281 | 127° | 16km/h | 28508m | 6.1m/s | -45.2°C | 0.8% | 15.9hPa | 2.6V | 00:00:00 | 00:00:00 | 00:00:00 | |
| 9A1FER-3 | 2026-08-31 12:38:59 | 46.28628 | 20.67179 | 118° | 22km/h | 28362m | 4.8m/s | 0°C | 0% | 0hPa | 2.6V | 00:00:00 | 01:49:28 | 00:00:00 | |
| 9A1FER-3 | 2026-08-31 12:38:34 | 46.28583 | 20.67032 | 51° | 13km/h | 28203m | 6.5m/s | 0°C | 0% | 0hPa | 2.6V | 00:00:00 | 01:49:03 | 08:30:00 | |
| 9A1FER-3 | 2026-08-31 12:38:02 | 46.28558 | 20.66886 | 88° | 15km/h | 27988m | 8.0m/s | 0°C | 0% | 0hPa | 2.6V | 00:00:00 | 01:48:31 | 00:00:00 | |
| 9A1FER-3 | 2026-08-31 12:37:47 | 46.28559 | 20.66817 | 141° | 18km/h | 27887m | 6.4m/s | 0°C | 0% | 0hPa | 2.6V | 00:00:00 | 01:48:16 | 00:00:00 | |
| 9A1FER-3 | 2026-08-31 12:37:32 | 46.28596 | 20.66747 | 123° | 15km/h | 27788m | 7.3m/s | 0°C | 0% | 0hPa | 2.6V | 00:00:00 | 01:48:01 | 00:00:00 | |
| LZ4TU-5 | 2026-08-31 12:37:19 | 46.28604 | 20.66692 | 111° | 15km/h | 27706m | 6.1m/s | -46.1°C | 0.8% | 18.0hPa | 2.6V | 00:00:00 | 00:00:00 | 00:00:00 | |
| 9A1FER-3 | 2026-08-31 12:37:17 | 46.28603 | 20.66677 | 65° | 13km/h | 27686m | 5.3m/s | 0°C | 0% | 0hPa | 2.6V | 00:00:00 | 01:47:46 | 00:00:00 | |
| LZ4TU-5 | 2026-08-31 12:37:15 | 46.28601 | 20.66673 | 63° | 11km/h | 27679m | 7.7m/s | -46.3°C | 0.8% | 18.0hPa | 2.6V | 00:00:00 | 00:00:00 | 00:00:00 | |
| 9A1FER-3 | 2026-08-31 12:37:02 | 46.28576 | 20.66621 | 26° | 18km/h | 27583m | 7.0m/s | 0°C | 0% | 0hPa | 2.6V | 00:00:00 | 01:47:31 | 00:00:00 | |
| 9A1FER-3 | 2026-08-31 12:36:47 | 46.28552 | 20.66538 | 99° | 16km/h | 27480m | 7.1m/s | 0°C | 0% | 0hPa | 2.6V | 00:00:00 | 01:47:16 | 00:00:00 | |
| 9A1FER-3 | 2026-08-31 12:36:31 | 46.28562 | 20.66440 | 99° | 11km/h | 27373m | 6.4m/s | 0°C | 0% | 0hPa | 2.6V | 00:00:00 | 01:47:00 | 00:00:00 | |
| 9A1FER-3 | 2026-08-31 12:36:16 | 46.28539 | 20.66403 | 187° | 9km/h | 27271m | 6.5m/s | 0°C | 0% | 0hPa | 2.6V | 00:00:00 | 01:46:45 | 00:00:00 | |
| LZ4TU-5 | 2026-08-31 12:35:05 | 46.28628 | 20.66030 | 87° | 29km/h | 26807m | 7.0m/s | -48.6°C | 0.9% | 20.6hPa | 2.6V | 00:00:00 | 00:00:00 | 00:00:00 | |
| LZ4TU-5 | 2026-08-31 12:33:09 | 46.28491 | 20.66036 | 132° | 7km/h | 26082m | 5.4m/s | -48.9°C | 0.9% | 23.0hPa | 2.6V | 00:00:00 | 00:00:00 | 00:00:00 | |
| GYPAP8-17 | 2026-08-31 12:32:01 | 46.28495 | 20.65919 | 289° | 5km/h | 25660m | 7.6m/s | -50.9°C | 1.0% | 24.5hPa | 2.6V | 00:00:00 | 00:00:00 | 00:00:00 | |
| LZ4TU-5 | 2026-08-31 12:31:19 | 46.28520 | 20.65908 | 89° | 29km/h | 25394m | 6.6m/s | -50.6°C | 1.0% | 25.5hPa | 2.6V | 00:00:00 | 00:00:00 | 00:00:00 | |
| LZ4TU-5 | 2026-08-31 12:31:15 | 46.28523 | 20.65864 | 105° | 29km/h | 25369m | 5.8m/s | -50.6°C | 1.0% | 25.6hPa | 2.6V | 00:00:00 | 00:00:00 | 00:00:00 | |
| LZ4TU-5 | 2026-08-31 12:29:25 | 46.28197 | 20.65698 | 134° | 4km/h | 24698m | 5.2m/s | -51.7°C | 1.1% | 28.4hPa | 2.6V | 00:00:00 | 00:00:00 | 00:00:00 | |
| LZ4TU-5 | 2026-08-31 12:29:21 | 46.28196 | 20.65698 | 0° | 0km/h | 24673m | 7.3m/s | -51.6°C | 1.1% | 28.5hPa | 2.6V | 00:00:00 | 00:00:00 | 00:00:00 | |
| LZ4TU-5 | 2026-08-31 12:27:33 | 46.28038 | 20.65543 | 136° | 5km/h | 24036m | 6.7m/s | -52.7°C | 1.1% | 31.4hPa | 2.6V | 00:00:00 | 00:00:00 | 00:00:00 | |
| GYPAP8-17 | 2026-08-31 12:27:28 | 46.28042 | 20.65536 | 115° | 9km/h | 24006m | 4.4m/s | -52.8°C | 1.1% | 31.6hPa | 2.6V | 00:00:00 | 00:00:00 | 00:00:00 | |
| LZ4TU-5 | 2026-08-31 12:25:44 | 46.27846 | 20.65210 | 325° | 20km/h | 23376m | 4.9m/s | -53.8°C | 1.2% | 34.8hPa | 2.6V | 00:00:00 | 00:00:00 | 00:00:00 | |
| LZ4TU-5 | 2026-08-31 12:23:53 | 46.27603 | 20.65428 | 42° | 24km/h | 22723m | 6.3m/s | -53.4°C | 1.2% | 38.6hPa | 2.6V | 00:00:00 | 00:00:00 | 00:00:00 | |
| LZ4TU-5 | 2026-08-31 12:22:04 | 46.27373 | 20.65653 | 312° | 9km/h | 22100m | 5.3m/s | -52.8°C | 1.1% | 42.5hPa | 2.6V | 00:00:00 | 00:00:00 | 00:00:00 | |
| LZ4TU-5 | 2026-08-31 12:20:05 | 46.27030 | 20.65493 | 18° | 22km/h | 21431m | 5.7m/s | -53.3°C | 1.2% | 47.2hPa | 2.6V | 00:00:00 | 00:00:00 | 00:00:00 | |
| LZ4TU-5 | 2026-08-31 12:18:17 | 46.26644 | 20.65949 | 76° | 7km/h | 20831m | 6.2m/s | -54.0°C | 1.3% | 51.8hPa | 2.6V | 00:00:00 | 00:00:00 | 00:00:00 | |
| 9A1FER-10 | 2026-08-31 12:16:59 | 46.26518 | 20.66075 | 240° | 5km/h | 20398m | 3.7m/s | -54.5°C | 4.3% | 55.4hPa | 2.6V | 00:00:00 | 01:27:28 | 00:00:00 | |
| 9A1FER-10 | 2026-08-31 12:16:44 | 46.26511 | 20.66060 | 64° | 7km/h | 20320m | 5.1m/s | -55.1°C | 4.5% | 56.0hPa | 2.6V | 00:00:00 | 01:27:13 | 00:00:00 | |
| 9A1FER-10 | 2026-08-31 12:16:29 | 46.26494 | 20.66029 | 89° | 18km/h | 20241m | 5.1m/s | -55.3°C | 4.4% | 56.7hPa | 2.6V | 00:00:00 | 01:26:58 | 00:00:00 | |
| LZ4TU-5 | 2026-08-31 12:16:23 | 46.26490 | 20.65994 | 75° | 18km/h | 20215m | 4.6m/s | -55.3°C | 1.3% | 57.0hPa | 2.6V | 00:00:00 | 00:00:00 | 00:00:00 | |
| 9A1FER-10 | 2026-08-31 12:16:14 | 46.26473 | 20.65941 | 52° | 22km/h | 20160m | 5.5m/s | -55.4°C | 4.6% | 57.5hPa | 2.6V | 00:00:00 | 01:26:43 | 08:30:00 | |
| 9A1FER-10 | 2026-08-31 12:15:58 | 46.26407 | 20.65864 | 1° | 16km/h | 20072m | 6.2m/s | -55.8°C | 4.6% | 58.3hPa | 2.7V | 00:00:00 | 01:26:27 | 00:00:00 | |
| 9A1FER-10 | 2026-08-31 12:15:43 | 46.26344 | 20.65873 | 346° | 7km/h | 19991m | 4.6m/s | -55.8°C | 4.5% | 59.0hPa | 2.7V | 00:00:00 | 01:26:12 | 00:00:00 | |
| 9A1FER-10 | 2026-08-31 12:15:28 | 46.26319 | 20.65878 | 39° | 11km/h | 19910m | 5.4m/s | -56.2°C | 4.7% | 59.8hPa | 2.7V | 00:00:00 | 01:25:57 | 00:00:00 | |
| 9A1FER-10 | 2026-08-31 12:15:13 | 46.26299 | 20.65837 | 67° | 16km/h | 19826m | 4.2m/s | -56.2°C | 4.7% | 60.5hPa | 2.7V | 00:00:00 | 01:25:42 | 00:00:00 | |
| 9A1FER-10 | 2026-08-31 12:14:58 | 46.26270 | 20.65758 | 59° | 22km/h | 19741m | 5.0m/s | -56.0°C | 4.7% | 61.4hPa | 2.7V | 00:00:00 | 01:25:27 | 00:00:00 | |
| 9A1FER-10 | 2026-08-31 12:14:43 | 46.26206 | 20.65684 | 42° | 22km/h | 19657m | 5.4m/s | -56.2°C | 4.8% | 62.2hPa | 2.7V | 00:00:00 | 01:25:12 | 00:00:00 | |
| LZ4TU-5 | 2026-08-31 12:14:38 | 46.26177 | 20.65663 | 12° | 26km/h | 19630m | 5.8m/s | 0°C | 0% | 62.5hPa | 2.6V | 00:00:00 | 00:00:00 | 00:00:00 | |
| LZ4TU-5 | 2026-08-31 12:14:32 | 46.26148 | 20.65656 | 18° | 18km/h | 19603m | 6.7m/s | 0°C | 0% | 62.8hPa | 2.6V | 00:00:00 | 00:00:00 | 00:00:00 | |
| 9A1FER-10 | 2026-08-31 12:14:28 | 46.26129 | 20.65642 | 31° | 13km/h | 19575m | 5.8m/s | -55.8°C | 4.6% | 63.0hPa | 2.6V | 00:00:00 | 01:24:57 | 00:00:00 | |
| 9A1FER-10 | 2026-08-31 12:14:13 | 46.26083 | 20.65615 | 24° | 9km/h | 19498m | 5.9m/s | -55.7°C | 4.5% | 63.8hPa | 2.6V | 00:00:00 | 01:24:42 | 00:00:00 | |
| 9A1FER-10 | 2026-08-31 12:13:58 | 46.26055 | 20.65580 | 72° | 16km/h | 19420m | 5.7m/s | -56.2°C | 4.7% | 64.6hPa | 2.6V | 00:00:00 | 01:24:27 | 08:30:00 | |
| 9A1FER-10 | 2026-08-31 12:13:43 | 46.26035 | 20.65500 | 63° | 9km/h | 19340m | 3.8m/s | -56.0°C | 4.7% | 65.4hPa | 2.7V | 00:00:00 | 01:24:12 | 00:00:00 | |
| 9A1FER-10 | 2026-08-31 12:13:28 | 46.26022 | 20.65460 | 50° | 11km/h | 19258m | 6.2m/s | -56.2°C | 4.7% | 66.2hPa | 2.7V | 00:00:00 | 01:23:57 | 00:00:00 | |
| 9A1FER-10 | 2026-08-31 12:13:13 | 46.26031 | 20.65401 | 117° | 11km/h | 19177m | 4.7m/s | -56.4°C | 4.8% | 67.1hPa | 2.7V | 00:00:00 | 01:23:42 | 00:00:00 | |
| 9A1FER-10 | 2026-08-31 12:12:58 | 46.26016 | 20.65347 | 67° | 18km/h | 19098m | 4.4m/s | -56.5°C | 4.9% | 67.9hPa | 2.6V | 00:00:00 | 01:23:27 | 00:00:00 | |
| LZ4TU-5 | 2026-08-31 12:12:51 | 46.25999 | 20.65319 | 51° | 22km/h | 19066m | 4.4m/s | 0°C | 0% | 68.3hPa | 2.6V | 00:00:00 | 00:00:00 | 00:00:00 | |
| LZ4TU-5 | 2026-08-31 12:12:47 | 46.25986 | 20.65296 | 60° | 18km/h | 19044m | 5.5m/s | 0°C | 0% | 68.6hPa | 2.6V | 00:00:00 | 00:00:00 | 00:00:00 | |
| 9A1FER-10 | 2026-08-31 12:12:43 | 46.25969 | 20.65275 | 25° | 20km/h | 19019m | 4.7m/s | -56.1°C | 4.7% | 68.8hPa | 2.6V | 00:00:00 | 01:23:12 | 00:00:00 | |
| 9A1FER-10 | 2026-08-31 12:12:27 | 46.25892 | 20.65230 | 1° | 27km/h | 18933m | 6.7m/s | -56.1°C | 4.6% | 69.7hPa | 2.6V | 00:00:00 | 01:22:56 | 00:00:00 | |
| 9A1FER-10 | 2026-08-31 12:12:12 | 46.25787 | 20.65227 | 5° | 26km/h | 18854m | 4.3m/s | -56.4°C | 4.6% | 70.6hPa | 2.7V | 00:00:00 | 01:22:41 | 00:00:00 | |
| 9A1FER-10 | 2026-08-31 12:11:57 | 46.25698 | 20.65189 | 32° | 29km/h | 18771m | 5.9m/s | -56.9°C | 4.8% | 71.5hPa | 2.7V | 00:00:00 | 01:22:26 | 00:00:00 | |
| 9A1FER-10 | 2026-08-31 12:11:42 | 46.25599 | 20.65109 | 24° | 22km/h | 18692m | 6.4m/s | -56.5°C | 4.6% | 72.4hPa | 2.7V | 00:00:00 | 01:22:11 | 08:30:00 | |
| 9A1FER-10 | 2026-08-31 12:11:27 | 46.25536 | 20.65040 | 64° | 22km/h | 18613m | 4.2m/s | -57.2°C | 4.9% | 73.3hPa | 2.7V | 00:00:00 | 01:21:56 | 00:00:00 | |
| 9A1FER-10 | 2026-08-31 12:11:12 | 46.25479 | 20.64955 | 36° | 26km/h | 18536m | 5.5m/s | -57.3°C | 5.0% | 74.2hPa | 2.7V | 00:00:00 | 01:21:41 | 00:00:00 | |
| LZ4TU-5 | 2026-08-31 12:11:08 | 46.25466 | 20.64940 | 40° | 18km/h | 18521m | 4.9m/s | 0°C | 0% | 74.4hPa | 2.7V | 00:00:00 | 00:00:00 | 00:00:00 | |
| LZ4TU-5 | 2026-08-31 12:11:03 | 46.25444 | 20.64916 | 28° | 26km/h | 18498m | 4.8m/s | 0°C | 0% | 74.7hPa | 2.7V | 00:00:00 | 00:00:00 | 00:00:00 | |
| 9A1FER-10 | 2026-08-31 12:10:57 | 46.25393 | 20.64902 | 8° | 26km/h | 18460m | 4.4m/s | -57.6°C | 5.0% | 75.1hPa | 2.7V | 00:00:00 | 01:21:26 | 00:00:00 | |
| 9A1FER-10 | 2026-08-31 12:10:41 | 46.25294 | 20.64890 | 359° | 15km/h | 18372m | 6.2m/s | -57.3°C | 4.9% | 76.1hPa | 2.6V | 00:00:00 | 01:21:09 | 00:00:00 | |
| 9A1FER-10 | 2026-08-31 12:10:24 | 46.25238 | 20.64894 | 10° | 9km/h | 18290m | 6.5m/s | -58.5°C | 5.4% | 77.1hPa | 2.6V | 00:00:00 | 01:20:53 | 00:00:00 | |
| 9A1FER-10 | 2026-08-31 12:10:07 | 46.25199 | 20.64885 | 51° | 22km/h | 18203m | 4.2m/s | -58.3°C | 5.4% | 78.2hPa | 2.6V | 00:00:00 | 01:20:36 | 00:00:00 | |
| LZ4TU-5 | 2026-08-31 12:09:23 | 46.25169 | 20.64792 | 78° | 9km/h | 17981m | 4.2m/s | 0°C | 0% | 81.1hPa | 2.7V | 00:00:00 | 00:00:00 | 00:00:00 | |
| LZ4TU-5 | 2026-08-31 12:09:18 | 46.25170 | 20.64764 | 91° | 16km/h | 17954m | 4.9m/s | 0°C | 0% | 81.4hPa | 2.7V | 00:00:00 | 00:00:00 | 00:00:00 | |
| LZ4TU-5 | 2026-08-31 12:07:38 | 46.25350 | 20.63819 | 96° | 38km/h | 17424m | 4.2m/s | 0°C | 0% | 88.6hPa | 2.7V | 00:00:00 | 00:00:00 | 00:00:00 | |
| LZ4TU-5 | 2026-08-31 12:07:33 | 46.25351 | 20.63747 | 87° | 42km/h | 17399m | 4.3m/s | 0°C | 0% | 88.9hPa | 2.7V | 00:00:00 | 00:00:00 | 00:00:00 | |
| 9A1FER-10 | 2026-08-31 12:07:10 | 46.25305 | 20.63405 | 64° | 35km/h | 17274m | 4.7m/s | -57.7°C | 5.0% | 90.6hPa | 2.7V | 00:00:00 | 01:17:39 | 00:00:00 | |
| 9A1FER-10 | 2026-08-31 12:06:51 | 46.25266 | 20.63177 | 81° | 37km/h | 17174m | 4.7m/s | -57.9°C | 5.2% | 92.1hPa | 2.7V | 00:00:00 | 01:17:20 | 00:00:00 | |
| 9A1FER-10 | 2026-08-31 12:06:36 | 46.25256 | 20.62980 | 80° | 42km/h | 17097m | 4.6m/s | -57.7°C | 5.1% | 93.2hPa | 2.7V | 00:00:00 | 01:17:05 | 08:30:00 | |
| 9A1FER-10 | 2026-08-31 12:06:21 | 46.25223 | 20.62755 | 74° | 44km/h | 17018m | 5.4m/s | -58.0°C | 5.3% | 94.4hPa | 2.7V | 00:00:00 | 01:16:50 | 00:00:00 | |
| 9A1FER-10 | 2026-08-31 12:06:06 | 46.25161 | 20.62538 | 61° | 35km/h | 16940m | 3.5m/s | -57.9°C | 5.3% | 95.6hPa | 2.7V | 00:00:00 | 01:16:35 | 00:00:00 | |
| LZ4TU-5 | 2026-08-31 12:05:49 | 46.25076 | 20.62367 | 51° | 33km/h | 16856m | 5.6m/s | 0°C | 0% | 96.9hPa | 2.7V | 00:00:00 | 00:00:00 | 00:00:00 | |
| 9A1FER-10 | 2026-08-31 12:04:57 | 46.24889 | 20.61807 | 83° | 29km/h | 16585m | 5.8m/s | -56.6°C | 5.2% | 101.1hPa | 2.7V | 00:00:00 | 01:15:26 | 00:00:00 | |
| 9A1FER-10 | 2026-08-31 12:04:42 | 46.24859 | 20.61646 | 77° | 37km/h | 16511m | 4.2m/s | -57.0°C | 5.4% | 102.3hPa | 2.7V | 00:00:00 | 01:15:11 | 00:00:00 | |
| 9A1FER-10 | 2026-08-31 12:04:27 | 46.24840 | 20.61447 | 78° | 40km/h | 16436m | 5.2m/s | -57.7°C | 5.6% | 103.5hPa | 2.7V | 00:00:00 | 01:14:56 | 00:00:00 | |
| 9A1FER-10 | 2026-08-31 12:04:12 | 46.24794 | 20.61242 | 75° | 37km/h | 16359m | 3.8m/s | -58.9°C | 6.4% | 104.8hPa | 2.7V | 00:00:00 | 01:14:41 | 00:00:00 | |
| LZ4TU-5 | 2026-08-31 12:04:07 | 46.24783 | 20.61188 | 75° | 38km/h | 16338m | 5.7m/s | 0°C | 0% | 105.2hPa | 0V | 00:00:00 | 00:00:00 | 00:00:00 | |
| 9A1FER-10 | 2026-08-31 12:03:57 | 46.24743 | 20.61058 | 61° | 31km/h | 16283m | 4.9m/s | -58.7°C | 6.2% | 106.0hPa | 0V | 00:00:00 | 01:14:26 | 00:00:00 | |
| 9A1FER-10 | 2026-08-31 12:03:42 | 46.24701 | 20.60896 | 77° | 27km/h | 16207m | 4.1m/s | -59.2°C | 6.5% | 107.3hPa | 0V | 00:00:00 | 01:14:11 | 00:00:00 | |
| 9A1FER-10 | 2026-08-31 12:03:27 | 46.24674 | 20.60747 | 77° | 26km/h | 16129m | 5.2m/s | 0°C | 0% | 0hPa | 0V | 00:00:00 | 01:13:56 | 00:00:00 | |
| 9A1FER-10 | 2026-08-31 12:03:12 | 46.24651 | 20.60608 | 81° | 37km/h | 16052m | 5.4m/s | 0°C | 0% | 0hPa | 0V | 00:00:00 | 01:13:41 | 00:00:00 | |
| 9A1FER-10 | 2026-08-31 12:02:57 | 46.24647 | 20.60406 | 87° | 49km/h | 15975m | 4.7m/s | 0°C | 0% | 0hPa | 0V | 00:00:00 | 01:13:26 | 00:00:00 | |
| 9A1FER-10 | 2026-08-31 12:02:42 | 46.24643 | 20.60134 | 81° | 49km/h | 15901m | 4.5m/s | 0°C | 0% | 0hPa | 0V | 00:00:00 | 01:13:11 | 00:00:00 | |
| LZ4TU-5 | 2026-08-31 12:02:30 | 46.24634 | 20.59937 | 88° | 53km/h | 15850m | 3.9m/s | 0°C | 0% | 113.7hPa | 0V | 00:00:00 | 00:00:00 | 00:00:00 | |
| LZ4TU-5 | 2026-08-31 12:02:26 | 46.24629 | 20.59844 | 81° | 51km/h | 15825m | 3.6m/s | 0°C | 0% | 114.2hPa | 0V | 00:00:00 | 00:00:00 | 00:00:00 | |
| LZ4TU-5 | 2026-08-31 12:00:47 | 46.24290 | 20.58266 | 82° | 33km/h | 15341m | 4.6m/s | 0°C | 0% | 123.4hPa | 0V | 00:00:00 | 00:00:00 | 00:00:00 | |
| LZ4TU-5 | 2026-08-31 12:00:43 | 46.24284 | 20.58215 | 82° | 35km/h | 15320m | 5.0m/s | 0°C | 0% | 0hPa | 0V | 00:00:00 | 00:00:00 | 00:00:00 | |
| 9A1FER-10 | 2026-08-31 11:59:56 | 46.24340 | 20.57444 | 90° | 60km/h | 15077m | 4.3m/s | 0°C | 0% | 0hPa | 0V | 00:00:00 | 01:10:25 | 00:00:00 | |
| 9A1FER-10 | 2026-08-31 11:59:41 | 46.24335 | 20.57115 | 88° | 55km/h | 15004m | 4.8m/s | 0°C | 0% | 0hPa | 0V | 00:00:00 | 01:10:10 | 00:00:00 | |
| 9A1FER-10 | 2026-08-31 11:59:25 | 46.24337 | 20.56791 | 97° | 57km/h | 14928m | 5.6m/s | 0°C | 0% | 0hPa | 0V | 00:00:00 | 01:09:54 | 00:00:00 | |
| 9A1FER-10 | 2026-08-31 11:59:10 | 46.24371 | 20.56486 | 95° | 53km/h | 14852m | 4.4m/s | 0°C | 0% | 0hPa | 0V | 00:00:00 | 01:09:39 | 00:00:00 | |
| LZ4TU-5 | 2026-08-31 11:59:00 | 46.24384 | 20.56316 | 101° | 53km/h | 14806m | 4.8m/s | 0°C | 0% | 0hPa | 0V | 00:00:00 | 00:00:00 | 00:00:00 | |
| LZ4TU-5 | 2026-08-31 11:58:56 | 46.24395 | 20.56220 | 97° | 53km/h | 14784m | 5.5m/s | 0°C | 0% | 0hPa | 0V | 00:00:00 | 00:00:00 | 00:00:00 | |
| 9A1FER-10 | 2026-08-31 11:58:54 | 46.24396 | 20.56182 | 92° | 55km/h | 14774m | 6.0m/s | 0°C | 0% | 0hPa | 0V | 00:00:00 | 01:09:23 | 00:00:00 | |
| 9A1FER-10 | 2026-08-31 11:58:39 | 46.24418 | 20.55884 | 94° | 57km/h | 14698m | 4.9m/s | 0°C | 0% | 0hPa | 0V | 00:00:00 | 01:09:08 | 00:00:00 | |
| LZ4TU-5 | 2026-08-31 11:57:17 | 46.24571 | 20.54368 | 99° | 57km/h | 14293m | 6.7m/s | 0°C | 0% | 0hPa | 0V | 00:00:00 | 00:00:00 | 00:00:00 | |
| LZ4TU-5 | 2026-08-31 11:57:13 | 46.24583 | 20.54269 | 106° | 53km/h | 14267m | 5.0m/s | 0°C | 0% | 0hPa | 0V | 00:00:00 | 00:00:00 | 00:00:00 | |
| LZ4TU-5 | 2026-08-31 11:55:21 | 46.25162 | 20.51641 | 107° | 75km/h | 13721m | 5.5m/s | 0°C | 0% | 0hPa | 0V | 00:00:00 | 00:00:00 | 00:00:00 | |
| LZ4TU-5 | 2026-08-31 11:55:15 | 46.25190 | 20.51500 | 110° | 82km/h | 13696m | 4.8m/s | 0°C | 0% | 0hPa | 0V | 00:00:00 | 00:00:00 | 00:00:00 | |
| LZ4TU-5 | 2026-08-31 11:53:38 | 46.25821 | 20.48496 | 105° | 80km/h | 13097m | 4.8m/s | 0°C | 0% | 0hPa | 0V | 00:00:00 | 00:00:00 | 00:00:00 | |
| LZ4TU-5 | 2026-08-31 11:53:34 | 46.25843 | 20.48359 | 108° | 80km/h | 13062m | 5.8m/s | 0°C | 0% | 0hPa | 0V | 00:00:00 | 00:00:00 | 00:00:00 | |
| GYPAP8-17 | 2026-08-31 11:53:13 | 46.25980 | 20.47702 | 105° | 86km/h | 12932m | 6.5m/s | -58.7°C | 18.2% | 181.7hPa | 0V | 00:00:00 | 00:00:00 | 00:00:00 | |
| LZ4TU-5 | 2026-08-31 11:51:54 | 46.26552 | 20.45169 | 101° | 106km/h | 12470m | 9.6m/s | 0°C | 0% | 0hPa | 0V | 00:00:00 | 00:00:00 | 00:00:00 | |
| LZ4TU-5 | 2026-08-31 11:51:49 | 46.26580 | 20.44983 | 104° | 99km/h | 12438m | 8.6m/s | 0°C | 0% | 0hPa | 0V | 00:00:00 | 00:00:00 | 00:00:00 | |
| LZ4TU-5 | 2026-08-31 11:50:07 | 46.27164 | 20.41095 | 106° | 113km/h | 11782m | 5.9m/s | 0°C | 0% | 0hPa | 0V | 00:00:00 | 00:00:00 | 00:00:00 | |
| LZ4TU-5 | 2026-08-31 11:50:03 | 46.27186 | 20.40903 | 97° | 104km/h | 11750m | 4.7m/s | 0°C | 0% | 0hPa | 0V | 00:00:00 | 00:00:00 | 00:00:00 | |
| GYPAP8-17 | 2026-08-31 11:49:57 | 46.27215 | 20.40666 | 105° | 102km/h | 11717m | 4.7m/s | -52.9°C | 44.6% | 219.9hPa | 0V | 00:00:00 | 00:00:00 | 00:00:00 | |
| OM5KV | 2026-08-31 11:43:13 | 46.28996 | 20.27170 | 107° | 84km/h | 9176m | 6.6m/s | 0°C | 0% | 0hPa | 0V | 00:00:00 | 00:00:00 | 00:00:00 | |
| OM5KV | 2026-08-31 11:43:04 | 46.29041 | 20.26918 | 105° | 71km/h | 9120m | 4.8m/s | 0°C | 0% | 0hPa | 0V | 00:00:00 | 00:00:00 | 00:00:00 | |
| OM5KV | 2026-08-31 11:42:24 | 46.29201 | 20.25846 | 103° | 68km/h | 8875m | 5.6m/s | -30.1°C | 20.6% | 333.6hPa | 0V | 00:00:00 | 00:00:00 | 00:00:00 | |
| OM5KV | 2026-08-31 11:42:22 | 46.29204 | 20.25822 | 104° | 64km/h | 8869m | 5.6m/s | -30.1°C | 20.6% | 333.9hPa | 0V | 00:00:00 | 00:00:00 | 00:00:00 | |
| OM5KV | 2026-08-31 11:42:17 | 46.29222 | 20.25703 | 104° | 77km/h | 8840m | 3.9m/s | -29.8°C | 20.5% | 335.3hPa | 0V | 00:00:00 | 00:00:00 | 00:00:00 | |
| OM5KV | 2026-08-31 11:42:16 | 46.29227 | 20.25675 | 105° | 77km/h | 8836m | 4.2m/s | -29.8°C | 20.6% | 335.6hPa | 0V | 00:00:00 | 00:00:00 | 00:00:00 | |
| OM5KV | 2026-08-31 11:42:10 | 46.29242 | 20.25533 | 92° | 66km/h | 8804m | 5.8m/s | -29.5°C | 21.3% | 337.3hPa | 0V | 00:00:00 | 00:00:00 | 00:00:00 | |
| OM5KV | 2026-08-31 11:42:01 | 46.29257 | 20.25303 | 107° | 69km/h | 8752m | 3.0m/s | -29.1°C | 23.0% | 340.0hPa | 0V | 00:00:00 | 00:00:00 | 00:00:00 | |
| OM5KV | 2026-08-31 11:41:55 | 46.29275 | 20.25165 | 97° | 57km/h | 8721m | 7.1m/s | -28.8°C | 24.1% | 341.6hPa | 0V | 00:00:00 | 00:00:00 | 00:00:00 | |
| OM5KV | 2026-08-31 11:41:54 | 46.29279 | 20.25122 | 97° | 62km/h | 8709m | 5.1m/s | -28.7°C | 24.4% | 342.2hPa | 0V | 00:00:00 | 00:00:00 | 00:00:00 | |
| OM5KV | 2026-08-31 11:41:50 | 46.29281 | 20.25023 | 94° | 73km/h | 8684m | 6.2m/s | -28.5°C | 24.6% | 343.3hPa | 0V | 00:00:00 | 00:00:00 | 00:00:00 | |
| OM5KV | 2026-08-31 11:41:48 | 46.29285 | 20.24970 | 99° | 68km/h | 8674m | 3.6m/s | -28.4°C | 24.7% | 343.8hPa | 0V | 00:00:00 | 00:00:00 | 00:00:00 | |
| OM5KV | 2026-08-31 11:41:38 | 46.29309 | 20.24753 | 94° | 58km/h | 8622m | 5.6m/s | -27.9°C | 23.7% | 346.3hPa | 0V | 00:00:00 | 00:00:00 | 00:00:00 | |
| OM5KV | 2026-08-31 11:41:34 | 46.29312 | 20.24652 | 104° | 60km/h | 8600m | 3.0m/s | -27.7°C | 23.1% | 347.5hPa | 0V | 00:00:00 | 00:00:00 | 00:00:00 | |
| OM5KV | 2026-08-31 11:41:26 | 46.29322 | 20.24479 | 84° | 55km/h | 8550m | 9.0m/s | -27.3°C | 0% | 349.8hPa | 0V | 00:00:00 | 00:00:00 | 00:00:00 | |
| OM5KV | 2026-08-31 11:41:18 | 46.29335 | 20.24334 | 97° | 66km/h | 8502m | 5.9m/s | -26.9°C | 22.2% | 352.0hPa | 0V | 00:00:00 | 00:00:00 | 00:00:00 | |
| OM5KV | 2026-08-31 11:41:10 | 46.29338 | 20.24147 | 102° | 62km/h | 8450m | 6.1m/s | -26.6°C | 0% | 354.3hPa | 0V | 00:00:00 | 00:00:00 | 00:00:00 | |
| OM5KV | 2026-08-31 11:41:09 | 46.29340 | 20.24125 | 97° | 58km/h | 8445m | 4.1m/s | -26.5°C | 0% | 0hPa | 0V | 00:00:00 | 00:00:00 | 00:00:00 | |
| OM5KV | 2026-08-31 11:41:04 | 46.29338 | 20.24014 | 86° | 62km/h | 8419m | 4.4m/s | -26.3°C | 0% | 0hPa | 0V | 00:00:00 | 00:00:00 | 00:00:00 | |
| OM5KV | 2026-08-31 11:41:01 | 46.29334 | 20.23954 | 88° | 49km/h | 8403m | 7.0m/s | -26.1°C | 0% | 0hPa | 0V | 00:00:00 | 00:00:00 | 00:00:00 | |
| OM5KV | 2026-08-31 11:40:59 | 46.29335 | 20.23917 | 96° | 53km/h | 8389m | 7.2m/s | -26.0°C | 0% | 0hPa | 0V | 00:00:00 | 00:00:00 | 00:00:00 | |
| OM5KV | 2026-08-31 11:40:53 | 46.29334 | 20.23803 | 93° | 57km/h | 8353m | 6.1m/s | -25.7°C | 0% | 0hPa | 0V | 00:00:00 | 00:00:00 | 00:00:00 | |
| OM5KV | 2026-08-31 11:40:50 | 46.29340 | 20.23736 | 98° | 64km/h | 8336m | 5.5m/s | -25.5°C | 0% | 0hPa | 0V | 00:00:00 | 00:00:00 | 00:00:00 | |
| OM5KV | 2026-08-31 11:40:48 | 46.29342 | 20.23689 | 93° | 62km/h | 8325m | 5.3m/s | -25.5°C | 0% | 0hPa | 0V | 00:00:00 | 00:00:00 | 00:00:00 | |
| OM5KV | 2026-08-31 11:40:46 | 46.29342 | 20.23619 | 90° | 64km/h | 8309m | 5.9m/s | -25.4°C | 0% | 0hPa | 0V | 00:00:00 | 00:00:00 | 00:00:00 | |
| OM5KV | 2026-08-31 11:40:36 | 46.29358 | 20.23440 | 92° | 53km/h | 8251m | 7.2m/s | -25.2°C | 0% | 0hPa | 0V | 00:00:00 | 00:00:00 | 00:00:00 | |
| OM5KV | 2026-08-31 11:40:28 | 46.29346 | 20.23273 | 84° | 53km/h | 8205m | 4.8m/s | 0°C | 0% | 0hPa | 0V | 00:00:00 | 00:00:00 | 00:00:00 | |
| OM5KV | 2026-08-31 11:40:27 | 46.29345 | 20.23253 | 84° | 57km/h | 8200m | 3.9m/s | 0°C | 0% | 0hPa | 0V | 00:00:00 | 00:00:00 | 00:00:00 | |
| OM5KV | 2026-08-31 11:40:21 | 46.29342 | 20.23117 | 94° | 53km/h | 8169m | 6.0m/s | 0°C | 0% | 0hPa | 0V | 00:00:00 | 00:00:00 | 00:00:00 | |
| GYPAP8-17 | 2026-08-31 11:40:18 | 46.29345 | 20.23060 | 96° | 53km/h | 8149m | 6.2m/s | 0°C | 0% | 0hPa | 0V | 00:00:00 | 00:00:00 | 00:00:00 | |
| OM5KV | 2026-08-31 11:40:11 | 46.29343 | 20.22930 | 72° | 44km/h | 8108m | 5.7m/s | 0°C | 0% | 0hPa | 0V | 00:00:00 | 00:00:00 | 00:00:00 | |
| OM5KV | 2026-08-31 11:40:09 | 46.29336 | 20.22900 | 76° | 46km/h | 8096m | 3.9m/s | 0°C | 0% | 0hPa | 0V | 00:00:00 | 00:00:00 | 00:00:00 | |
| OM5KV | 2026-08-31 11:40:05 | 46.29331 | 20.22823 | 90° | 58km/h | 8075m | 4.8m/s | 0°C | 0% | 0hPa | 0V | 00:00:00 | 00:00:00 | 00:00:00 | |
| OM5KV | 2026-08-31 11:40:04 | 46.29331 | 20.22801 | 90° | 60km/h | 8069m | 6.0m/s | 0°C | 0% | 0hPa | 0V | 00:00:00 | 00:00:00 | 00:00:00 | |
| OM5KV | 2026-08-31 11:40:01 | 46.29321 | 20.22718 | 76° | 53km/h | 8048m | 5.2m/s | 0°C | 0% | 0hPa | 0V | 00:00:00 | 00:00:00 | 00:00:00 | |
| OM5KV | 2026-08-31 11:39:58 | 46.29314 | 20.22681 | 75° | 53km/h | 8038m | 6.2m/s | 0°C | 0% | 0hPa | 0V | 00:00:00 | 00:00:00 | 00:00:00 | |
| GYPAP8-17 | 2026-08-31 11:39:57 | 46.29310 | 20.22662 | 78° | 55km/h | 8031m | 7.7m/s | 0°C | 0% | 0hPa | 0V | 00:00:00 | 00:00:00 | 00:00:00 | |
| OM5KV | 2026-08-31 11:39:48 | 46.29289 | 20.22477 | 87° | 53km/h | 7979m | 4.9m/s | 0°C | 0% | 0hPa | 0V | 00:00:00 | 00:00:00 | 00:00:00 | |
| OM5KV | 2026-08-31 11:39:47 | 46.29288 | 20.22457 | 86° | 53km/h | 7974m | 5.1m/s | 0°C | 0% | 0hPa | 0V | 00:00:00 | 00:00:00 | 00:00:00 | |
| OM5KV | 2026-08-31 11:39:42 | 46.29275 | 20.22358 | 80° | 62km/h | 7949m | 5.8m/s | 0°C | 0% | 0hPa | 0V | 00:00:00 | 00:00:00 | 00:00:00 | |
| OM5KV | 2026-08-31 11:39:36 | 46.29259 | 20.22223 | 77° | 58km/h | 7918m | 6.7m/s | 0°C | 0% | 0hPa | 0V | 00:00:00 | 00:00:00 | 00:00:00 |